createdAt,value
2023-03-17T00:01:56.853Z,7.56
2023-03-17T00:04:27.331Z,7.55
2023-03-17T00:06:55.136Z,7.55
2023-03-17T00:09:22.789Z,7.55
2023-03-17T00:11:50.848Z,7.56
2023-03-17T00:14:19.771Z,7.57
2023-03-17T00:16:52.763Z,7.61
2023-03-17T00:19:32.221Z,7.63
2023-03-17T00:22:01.386Z,7.65
2023-03-17T00:24:29.632Z,7.63
2023-03-17T00:26:56.665Z,7.66
2023-03-17T00:29:25.381Z,7.67
2023-03-17T00:31:53.566Z,7.68
2023-03-17T00:34:23.425Z,7.65
2023-03-17T00:36:51.419Z,7.62
2023-03-17T00:39:19.690Z,7.58
2023-03-17T00:41:50.154Z,7.54
2023-03-17T00:44:17.539Z,7.50
2023-03-17T00:46:44.794Z,7.46
2023-03-17T00:49:23.920Z,7.42
2023-03-17T00:51:51.545Z,7.40
2023-03-17T00:54:20.789Z,7.39
2023-03-17T00:56:51.022Z,7.37
2023-03-17T00:59:26.231Z,7.38
2023-03-17T01:01:54.156Z,7.36
2023-03-17T01:04:22.049Z,7.36
2023-03-17T01:06:50.349Z,7.34
2023-03-17T01:09:25.901Z,7.34
2023-03-17T01:11:55.121Z,7.33
2023-03-17T01:14:23.174Z,7.34
2023-03-17T01:16:50.528Z,7.30
2023-03-17T01:19:17.980Z,7.31
2023-03-17T01:21:46.480Z,7.29
2023-03-17T01:24:15.047Z,7.28
2023-03-17T01:26:42.071Z,7.26
2023-03-17T01:29:09.227Z,7.22
2023-03-17T01:31:36.389Z,7.20
2023-03-17T01:34:06.234Z,7.18
2023-03-17T01:36:34.366Z,7.17
2023-03-17T01:39:01.777Z,7.19
2023-03-17T01:41:28.740Z,7.20
2023-03-17T01:43:55.732Z,7.20
2023-03-17T01:46:36.115Z,7.21
2023-03-17T01:49:31.923Z,7.21
2023-03-17T01:52:07.506Z,7.19
2023-03-17T01:54:46.141Z,7.18
2023-03-17T01:57:28.656Z,7.14
2023-03-17T02:00:19.756Z,7.13
2023-03-17T02:02:51.651Z,7.12
2023-03-17T02:05:25.960Z,7.13
2023-03-17T02:07:55.592Z,7.13
2023-03-17T02:10:29.826Z,7.13
2023-03-17T02:13:02.768Z,7.10
2023-03-17T02:15:46.592Z,7.07
2023-03-17T02:18:15.271Z,7.00
2023-03-17T02:20:47.940Z,6.94
2023-03-17T02:23:22.880Z,6.87
2023-03-17T02:25:53.683Z,6.83
2023-03-17T02:28:29.207Z,6.79
2023-03-17T02:30:57.331Z,6.76
2023-03-17T02:33:24.387Z,6.74
2023-03-17T02:35:55.180Z,6.74
2023-03-17T02:38:22.181Z,6.73
2023-03-17T02:40:49.334Z,6.68
2023-03-17T02:43:16.774Z,6.67
2023-03-17T02:45:43.859Z,6.70
2023-03-17T02:48:12.220Z,6.70
2023-03-17T02:50:39.314Z,6.74
2023-03-17T02:53:07.582Z,6.76
2023-03-17T02:55:34.828Z,6.79
2023-03-17T02:58:03.434Z,6.83
2023-03-17T03:00:30.973Z,6.84
2023-03-17T03:02:58.149Z,6.87
2023-03-17T03:05:25.380Z,6.88
2023-03-17T03:07:52.758Z,6.90
2023-03-17T03:10:19.942Z,6.90
2023-03-17T03:12:47.289Z,6.91
2023-03-17T03:15:14.607Z,6.90
2023-03-17T03:17:42.072Z,6.89
2023-03-17T03:20:11.583Z,6.87
2023-03-17T03:22:39.006Z,6.84
2023-03-17T03:25:08.781Z,6.83
2023-03-17T03:27:36.065Z,6.83
2023-03-17T03:30:04.443Z,6.81
2023-03-17T03:32:31.600Z,6.82
2023-03-17T03:34:58.650Z,6.81
2023-03-17T03:37:26.035Z,6.82
2023-03-17T03:39:53.122Z,6.82
2023-03-17T03:42:20.156Z,6.81
2023-03-17T03:44:47.106Z,6.79
2023-03-17T03:47:14.107Z,6.79
2023-03-17T03:49:41.168Z,6.76
2023-03-17T03:52:08.835Z,6.77
2023-03-17T03:54:35.882Z,6.75
2023-03-17T03:57:02.911Z,6.73
2023-03-17T03:59:30.647Z,6.71
2023-03-17T04:01:57.615Z,6.67
2023-03-17T04:04:24.615Z,6.63
2023-03-17T04:06:51.567Z,6.59
2023-03-17T04:09:18.636Z,6.57
2023-03-17T04:11:45.941Z,6.54
2023-03-17T04:14:13.288Z,6.53
2023-03-17T04:16:43.263Z,6.51
2023-03-17T04:19:11.253Z,6.48
2023-03-17T04:21:38.282Z,6.45
2023-03-17T04:24:05.939Z,6.41
2023-03-17T04:26:32.922Z,6.39
2023-03-17T04:29:00.160Z,6.37
2023-03-17T04:31:27.487Z,6.35
2023-03-17T04:33:54.622Z,6.32
2023-03-17T04:36:23.885Z,6.28
2023-03-17T04:38:51.017Z,6.24
2023-03-17T04:41:18.086Z,6.20
2023-03-17T04:43:45.524Z,6.18
2023-03-17T04:46:13.859Z,6.14
2023-03-17T04:48:41.412Z,6.13
2023-03-17T04:51:10.404Z,6.10
2023-03-17T04:53:38.762Z,6.08
2023-03-17T04:56:06.513Z,6.09
2023-03-17T04:58:33.506Z,6.08
2023-03-17T05:01:02.424Z,6.10
2023-03-17T05:03:31.039Z,6.10
2023-03-17T05:05:59.196Z,6.11
2023-03-17T05:08:28.342Z,6.12
2023-03-17T05:10:57.271Z,6.13
2023-03-17T05:13:26.385Z,6.13
2023-03-17T05:15:55.668Z,6.17
2023-03-17T05:18:25.548Z,6.18
2023-03-17T05:20:53.150Z,6.18
2023-03-17T05:23:20.748Z,6.18
2023-03-17T05:25:48.912Z,6.17
2023-03-17T05:28:16.082Z,6.15
2023-03-17T05:30:43.577Z,6.15
2023-03-17T05:33:10.651Z,6.14
2023-03-17T05:35:37.984Z,6.11
2023-03-17T05:38:05.007Z,6.11
2023-03-17T05:40:32.705Z,6.10
2023-03-17T05:42:59.902Z,6.08
2023-03-17T05:45:26.872Z,6.06
2023-03-17T05:47:54.175Z,6.06
2023-03-17T05:50:21.595Z,6.08
2023-03-17T05:52:48.858Z,6.09
2023-03-17T05:55:16.139Z,6.11
2023-03-17T05:57:43.200Z,6.16
2023-03-17T06:00:13.190Z,6.19
2023-03-17T06:02:40.413Z,6.28
2023-03-17T06:05:08.835Z,6.41
2023-03-17T06:07:50.876Z,6.52
2023-03-17T06:10:20.577Z,6.59
2023-03-17T06:12:47.668Z,6.65
2023-03-17T06:15:17.004Z,6.75
2023-03-17T06:17:44.496Z,6.79
2023-03-17T06:20:13.085Z,6.84
2023-03-17T06:22:51.710Z,6.96
2023-03-17T06:25:27.941Z,7.05
2023-03-17T06:27:56.147Z,7.06
2023-03-17T06:30:23.197Z,7.03
2023-03-17T06:32:50.377Z,7.01
2023-03-17T06:35:18.138Z,6.98
2023-03-17T06:37:45.238Z,6.95
2023-03-17T06:40:13.334Z,6.99
2023-03-17T06:42:40.418Z,7.03
2023-03-17T06:45:09.384Z,7.09
2023-03-17T06:47:37.320Z,7.15
2023-03-17T06:50:05.593Z,7.23
2023-03-17T06:52:32.530Z,7.32
2023-03-17T06:54:59.515Z,7.38
2023-03-17T06:57:26.982Z,7.43
2023-03-17T06:59:54.304Z,7.50
2023-03-17T07:02:21.339Z,7.55
2023-03-17T07:04:48.662Z,7.60
2023-03-17T07:07:16.285Z,7.67
2023-03-17T07:09:43.293Z,7.72
2023-03-17T07:12:10.488Z,7.78
2023-03-17T07:14:37.878Z,7.86
2023-03-17T07:17:06.737Z,7.97
2023-03-17T07:19:35.124Z,8.05
2023-03-17T07:22:02.236Z,8.14
2023-03-17T07:24:29.238Z,8.23
2023-03-17T07:26:56.232Z,8.30
2023-03-17T07:29:23.421Z,8.39
2023-03-17T07:31:50.696Z,8.48
2023-03-17T07:34:17.907Z,8.57
2023-03-17T07:36:44.946Z,8.63
2023-03-17T07:39:12.765Z,8.72
2023-03-17T07:41:39.846Z,8.78
2023-03-17T07:44:11.402Z,8.84
2023-03-17T07:46:39.011Z,8.93
2023-03-17T07:49:06.295Z,9.01
2023-03-17T07:51:33.401Z,9.09
2023-03-17T07:54:03.991Z,9.14
2023-03-17T07:56:32.696Z,9.22
2023-03-17T07:59:00.124Z,9.28
2023-03-17T08:01:28.091Z,9.32
2023-03-17T08:03:56.468Z,9.36
2023-03-17T08:06:27.147Z,9.42
2023-03-17T08:08:55.311Z,9.46
2023-03-17T08:11:23.390Z,9.49
2023-03-17T08:13:50.992Z,9.58
2023-03-17T08:16:18.096Z,9.64
2023-03-17T08:18:45.170Z,9.70
2023-03-17T08:21:14.095Z,9.73
2023-03-17T08:23:43.142Z,9.75
2023-03-17T08:26:10.353Z,9.80
2023-03-17T08:28:37.595Z,9.85
2023-03-17T08:31:17.411Z,9.87
2023-03-17T08:33:52.472Z,9.91
2023-03-17T08:36:20.973Z,9.95
2023-03-17T08:38:48.588Z,10.03
2023-03-17T08:41:23.736Z,10.12
2023-03-17T08:43:51.717Z,10.20
2023-03-17T08:46:32.243Z,10.33
2023-03-17T08:49:00.885Z,10.45
2023-03-17T08:51:34.673Z,10.54
2023-03-17T08:54:03.494Z,10.67
2023-03-17T08:56:30.514Z,10.79
2023-03-17T08:58:57.452Z,10.92
2023-03-17T09:01:24.878Z,11.00
2023-03-17T09:03:55.090Z,11.15
2023-03-17T09:06:22.962Z,11.31
2023-03-17T09:08:55.346Z,11.48
2023-03-17T09:11:29.680Z,11.61
2023-03-17T09:13:57.015Z,11.74
2023-03-17T09:16:25.414Z,11.86
2023-03-17T09:18:53.131Z,11.98
2023-03-17T09:21:21.229Z,12.09
2023-03-17T09:23:48.384Z,12.19
2023-03-17T09:26:15.698Z,12.32
2023-03-17T09:28:42.883Z,12.42
2023-03-17T09:31:12.464Z,12.56
2023-03-17T09:33:41.615Z,12.64
2023-03-17T09:36:10.728Z,12.74
2023-03-17T09:38:38.957Z,12.82
2023-03-17T09:41:23.544Z,12.90
2023-03-17T09:44:28.867Z,12.94
2023-03-17T09:47:46.137Z,13.10
2023-03-17T09:50:28.435Z,13.29
2023-03-17T09:52:58.443Z,13.45
2023-03-17T09:55:31.715Z,13.64
2023-03-17T09:58:00.800Z,13.77
2023-03-17T10:00:31.108Z,13.90
2023-03-17T10:02:59.783Z,14.04
2023-03-17T10:05:32.012Z,14.15
2023-03-17T10:08:30.728Z,14.24
2023-03-17T10:11:28.487Z,14.30
2023-03-17T10:14:04.846Z,14.33
2023-03-17T10:16:41.476Z,14.45
2023-03-17T10:19:35.275Z,14.67
2023-03-17T10:22:28.629Z,14.96
2023-03-17T10:25:04.333Z,15.23
2023-03-17T10:27:37.356Z,15.42
2023-03-17T10:30:15.232Z,15.63
2023-03-17T10:32:43.541Z,15.89
2023-03-17T10:35:12.408Z,16.09
2023-03-17T10:37:39.944Z,16.26
2023-03-17T10:40:20.736Z,16.49
2023-03-17T10:42:54.847Z,16.72
2023-03-17T10:45:29.672Z,16.85
2023-03-17T10:48:00.079Z,16.98
2023-03-17T10:50:39.961Z,17.16
2023-03-17T10:53:10.816Z,17.32
2023-03-17T10:55:37.759Z,17.42
2023-03-17T10:58:17.213Z,17.50
2023-03-17T11:01:23.088Z,17.56
2023-03-17T11:03:50.766Z,17.53
2023-03-17T11:06:30.706Z,17.60
2023-03-17T11:09:09.568Z,17.66
2023-03-17T11:11:46.498Z,17.73
2023-03-17T11:14:18.560Z,17.75
2023-03-17T11:16:57.562Z,17.69
2023-03-17T11:20:05.783Z,17.65
2023-03-17T11:22:46.489Z,17.67
2023-03-17T11:25:19.641Z,17.76
2023-03-17T11:28:05.645Z,17.77
2023-03-17T11:30:39.749Z,17.81
2023-03-17T11:33:34.664Z,17.76
2023-03-17T11:36:27.072Z,17.74
2023-03-17T11:38:59.698Z,17.73
2023-03-17T11:41:51.021Z,17.76
2023-03-17T11:44:49.063Z,17.89
2023-03-17T11:47:38.524Z,18.06
2023-03-17T11:50:30.649Z,18.26
2023-03-17T11:53:20.597Z,18.29
2023-03-17T11:56:00.213Z,18.42
2023-03-17T11:58:39.910Z,18.54
2023-03-17T12:01:14.120Z,18.70
2023-03-17T12:03:54.337Z,18.75
2023-03-17T12:06:36.790Z,18.78
2023-03-17T12:09:32.422Z,18.84
2023-03-17T12:12:03.120Z,18.88
2023-03-17T12:14:46.432Z,18.82
2023-03-17T12:17:33.118Z,18.69
2023-03-17T12:20:32.867Z,18.57
2023-03-17T12:23:16.501Z,18.61
2023-03-17T12:26:02.592Z,18.65
2023-03-17T12:28:40.913Z,18.73
2023-03-17T12:31:17.443Z,18.85
2023-03-17T12:34:28.542Z,19.04
2023-03-17T12:36:56.123Z,19.26
2023-03-17T12:39:37.482Z,19.43
2023-03-17T12:42:19.642Z,19.54
2023-03-17T12:45:04.835Z,19.55
2023-03-17T12:48:24.930Z,19.49
2023-03-17T12:51:31.142Z,19.52
2023-03-17T12:54:00.202Z,19.62
2023-03-17T12:56:36.693Z,19.71
2023-03-17T12:59:14.687Z,19.71
2023-03-17T13:02:15.554Z,19.74
2023-03-17T13:05:00.648Z,19.81
2023-03-17T13:07:45.421Z,19.92
2023-03-17T13:10:20.042Z,19.95
2023-03-17T13:12:46.936Z,19.94
2023-03-17T13:15:23.504Z,19.92
2023-03-17T13:18:16.612Z,19.97
2023-03-17T13:20:57.470Z,19.99
2023-03-17T13:23:37.512Z,20.02
2023-03-17T13:26:04.522Z,20.02
2023-03-17T13:28:34.926Z,20.06
2023-03-17T13:31:14.240Z,20.09
2023-03-17T13:33:52.076Z,20.10
2023-03-17T13:36:34.091Z,20.11
2023-03-17T13:39:37.835Z,20.11
2023-03-17T13:42:18.647Z,20.06
2023-03-17T13:45:10.875Z,20.07
2023-03-17T13:47:43.416Z,20.09
2023-03-17T13:50:30.045Z,20.14
2023-03-17T13:53:10.507Z,20.17
2023-03-17T13:55:41.896Z,20.15
2023-03-17T13:58:11.402Z,20.14
2023-03-17T14:00:49.078Z,20.15
2023-03-17T14:03:35.177Z,20.06
2023-03-17T14:06:08.145Z,20.01
2023-03-17T14:08:47.788Z,19.95
2023-03-17T14:11:39.277Z,19.93
2023-03-17T14:14:41.374Z,19.85
2023-03-17T14:17:41.711Z,19.85
2023-03-17T14:20:18.409Z,19.82
2023-03-17T14:22:53.856Z,19.79
2023-03-17T14:25:26.459Z,19.76
2023-03-17T14:27:57.732Z,19.81
2023-03-17T14:30:34.650Z,19.82
2023-03-17T14:33:06.599Z,19.84
2023-03-17T14:35:39.236Z,19.88
2023-03-17T14:38:28.362Z,19.85
2023-03-17T14:41:27.869Z,19.79
2023-03-17T14:44:00.285Z,19.70
2023-03-17T14:46:40.284Z,19.66
2023-03-17T14:49:19.211Z,19.63
2023-03-17T14:51:51.300Z,19.61
2023-03-17T14:54:31.361Z,19.56
2023-03-17T14:57:07.285Z,19.48
2023-03-17T14:59:38.698Z,19.38
2023-03-17T15:02:35.912Z,19.30
2023-03-17T15:05:43.230Z,19.22
2023-03-17T15:08:40.899Z,19.12
2023-03-17T15:11:14.656Z,19.03
2023-03-17T15:13:41.934Z,18.97
2023-03-17T15:16:22.743Z,18.93
2023-03-17T15:19:16.725Z,18.90
2023-03-17T15:21:43.782Z,18.92
2023-03-17T15:24:40.552Z,18.96
2023-03-17T15:27:18.798Z,18.96
2023-03-17T15:29:47.423Z,18.93
2023-03-17T15:32:24.819Z,18.87
2023-03-17T15:34:56.910Z,18.83
2023-03-17T15:37:29.458Z,18.72
2023-03-17T15:39:58.016Z,18.67
2023-03-17T15:42:30.695Z,18.60
2023-03-17T15:45:00.073Z,18.53
2023-03-17T15:47:31.500Z,18.48
2023-03-17T15:50:26.502Z,18.43
2023-03-17T15:52:55.611Z,18.38
2023-03-17T15:55:29.760Z,18.35
2023-03-17T15:57:58.576Z,18.30
2023-03-17T16:00:29.577Z,18.28
2023-03-17T16:03:02.682Z,18.25
2023-03-17T16:05:33.747Z,18.24
2023-03-17T16:08:00.753Z,18.21
2023-03-17T16:10:32.329Z,18.20
2023-03-17T16:12:59.504Z,18.13
2023-03-17T16:15:31.371Z,18.03
2023-03-17T16:18:02.142Z,17.90
2023-03-17T16:20:40.048Z,17.84
2023-03-17T16:23:17.650Z,17.71
2023-03-17T16:25:46.634Z,17.58
2023-03-17T16:28:32.321Z,17.45
2023-03-17T16:31:01.880Z,17.33
2023-03-17T16:33:38.069Z,17.23
2023-03-17T16:36:05.385Z,17.11
2023-03-17T16:38:34.134Z,17.01
2023-03-17T16:41:16.710Z,16.90
2023-03-17T16:43:46.471Z,16.80
2023-03-17T16:46:13.680Z,16.70
2023-03-17T16:48:40.685Z,16.60
2023-03-17T16:51:07.639Z,16.52
2023-03-17T16:53:35.931Z,16.45
2023-03-17T16:56:03.248Z,16.36
2023-03-17T16:58:36.775Z,16.27
2023-03-17T17:01:22.344Z,16.20
2023-03-17T17:03:50.196Z,16.13
2023-03-17T17:06:20.288Z,16.07
2023-03-17T17:08:49.391Z,16.02
2023-03-17T17:11:19.657Z,15.97
2023-03-17T17:13:49.231Z,15.90
2023-03-17T17:16:26.981Z,15.84
2023-03-17T17:18:54.731Z,15.77
2023-03-17T17:21:21.917Z,15.72
2023-03-17T17:23:50.525Z,15.67
2023-03-17T17:26:18.524Z,15.61
2023-03-17T17:28:45.562Z,15.55
2023-03-17T17:31:14.037Z,15.48
2023-03-17T17:33:41.067Z,15.42
2023-03-17T17:36:15.170Z,15.34
2023-03-17T17:38:42.892Z,15.24
2023-03-17T17:41:12.893Z,15.21
2023-03-17T17:43:41.159Z,15.15
2023-03-17T17:46:19.147Z,15.10
2023-03-17T17:48:47.880Z,15.06
2023-03-17T17:51:14.922Z,15.03
2023-03-17T17:53:41.965Z,15.00
2023-03-17T17:56:17.813Z,14.96
2023-03-17T17:58:45.785Z,14.92
2023-03-17T18:01:13.910Z,14.87
2023-03-17T18:03:42.852Z,14.84
2023-03-17T18:06:13.025Z,14.81
2023-03-17T18:08:41.161Z,14.78
2023-03-17T18:11:08.687Z,14.72
2023-03-17T18:13:36.195Z,14.66
2023-03-17T18:16:04.045Z,14.59
2023-03-17T18:18:32.564Z,14.50
2023-03-17T18:20:59.852Z,14.43
2023-03-17T18:23:27.433Z,14.39
2023-03-17T18:26:02.038Z,14.35
2023-03-17T18:28:29.381Z,14.29
2023-03-17T18:31:06.898Z,14.26
2023-03-17T18:33:34.081Z,14.21
2023-03-17T18:36:01.468Z,14.16
2023-03-17T18:38:28.620Z,14.13
2023-03-17T18:40:55.552Z,14.09
2023-03-17T18:43:22.526Z,14.07
2023-03-17T18:45:49.587Z,14.05
2023-03-17T18:48:16.550Z,14.07
2023-03-17T18:50:43.467Z,14.06
2023-03-17T18:53:10.374Z,14.06
2023-03-17T18:55:37.259Z,14.03
2023-03-17T18:58:04.322Z,13.99
2023-03-17T19:00:31.528Z,13.94
2023-03-17T19:02:58.646Z,13.91
2023-03-17T19:05:25.932Z,13.86
2023-03-17T19:07:52.816Z,13.80
2023-03-17T19:10:20.018Z,13.75
2023-03-17T19:12:47.335Z,13.71
2023-03-17T19:15:14.663Z,13.66
2023-03-17T19:17:42.967Z,13.62
2023-03-17T19:20:10.880Z,13.59
2023-03-17T19:22:37.930Z,13.55
2023-03-17T19:25:06.274Z,13.51
2023-03-17T19:27:33.193Z,13.48
2023-03-17T19:30:00.195Z,13.46
2023-03-17T19:32:27.471Z,13.43
2023-03-17T19:34:54.443Z,13.40
2023-03-17T19:37:21.389Z,13.35
2023-03-17T19:39:48.447Z,13.31
2023-03-17T19:42:16.139Z,13.26
2023-03-17T19:44:43.129Z,13.23
2023-03-17T19:47:10.037Z,13.16
2023-03-17T19:49:38.302Z,13.11
2023-03-17T19:52:07.580Z,13.07
2023-03-17T19:54:37.602Z,13.02
2023-03-17T19:57:05.267Z,12.97
2023-03-17T19:59:32.161Z,12.92
2023-03-17T20:01:59.158Z,12.88
2023-03-17T20:04:26.218Z,12.88
2023-03-17T20:06:56.870Z,12.88
2023-03-17T20:09:26.198Z,12.93
2023-03-17T20:11:56.088Z,12.96
2023-03-17T20:14:23.538Z,12.99
2023-03-17T20:16:51.942Z,13.03
2023-03-17T20:19:19.333Z,13.05
2023-03-17T20:21:46.290Z,13.08
2023-03-17T20:24:14.630Z,13.10
2023-03-17T20:26:45.737Z,13.12
2023-03-17T20:29:14.250Z,13.12
2023-03-17T20:31:42.177Z,13.14
2023-03-17T20:34:10.676Z,13.15
2023-03-17T20:36:42.112Z,13.14
2023-03-17T20:39:13.761Z,13.15
2023-03-17T20:41:41.304Z,13.16
2023-03-17T20:44:08.673Z,13.16
2023-03-17T20:46:35.793Z,13.16
2023-03-17T20:49:04.046Z,13.16
2023-03-17T20:51:32.346Z,13.15
2023-03-17T20:54:02.454Z,13.14
2023-03-17T20:56:31.354Z,13.14
2023-03-17T20:58:58.615Z,13.14
2023-03-17T21:01:26.632Z,13.16
2023-03-17T21:03:53.846Z,13.16
2023-03-17T21:06:21.159Z,13.16
2023-03-17T21:08:48.158Z,13.17
2023-03-17T21:11:19.473Z,13.18
2023-03-17T21:13:47.063Z,13.16
2023-03-17T21:16:25.102Z,13.15
2023-03-17T21:18:55.745Z,13.15
2023-03-17T21:21:24.684Z,13.14
2023-03-17T21:23:51.688Z,13.13
2023-03-17T21:26:19.443Z,13.14
2023-03-17T21:28:47.580Z,13.15
2023-03-17T21:31:15.970Z,13.12
2023-03-17T21:33:43.926Z,13.11
2023-03-17T21:36:11.203Z,13.10
2023-03-17T21:38:38.087Z,13.10
2023-03-17T21:41:34.005Z,13.11
2023-03-17T21:44:03.097Z,13.08
2023-03-17T21:46:31.714Z,13.08
2023-03-17T21:48:59.134Z,13.08
2023-03-17T21:51:27.266Z,13.08
2023-03-17T21:53:54.285Z,13.08
2023-03-17T21:56:21.522Z,13.08
2023-03-17T21:58:49.024Z,13.07
2023-03-17T22:01:17.968Z,13.07
2023-03-17T22:03:45.098Z,13.05
2023-03-17T22:06:13.884Z,13.05
2023-03-17T22:08:41.387Z,13.04
2023-03-17T22:11:12.092Z,13.03
2023-03-17T22:13:40.107Z,13.02
2023-03-17T22:16:12.107Z,13.02
2023-03-17T22:18:40.133Z,13.02
2023-03-17T22:21:10.827Z,13.03
2023-03-17T22:23:42.234Z,13.04
2023-03-17T22:26:13.436Z,13.05
2023-03-17T22:28:43.105Z,13.07
2023-03-17T22:31:22.913Z,13.10
2023-03-17T22:33:54.987Z,13.12
2023-03-17T22:36:23.936Z,13.14
2023-03-17T22:38:51.388Z,13.14
2023-03-17T22:41:23.248Z,13.15
2023-03-17T22:43:51.363Z,13.13
2023-03-17T22:46:19.909Z,13.10
2023-03-17T22:48:47.199Z,13.09
2023-03-17T22:51:22.044Z,13.04
2023-03-17T22:53:51.044Z,13.00
2023-03-17T22:56:19.530Z,12.94
2023-03-17T22:58:47.472Z,12.89
2023-03-17T23:01:17.025Z,12.86
2023-03-17T23:03:45.113Z,12.84
2023-03-17T23:06:13.256Z,12.81
2023-03-17T23:08:42.727Z,12.79
2023-03-17T23:11:18.262Z,12.79
2023-03-17T23:13:47.347Z,12.77
2023-03-17T23:16:15.217Z,12.77
2023-03-17T23:18:46.119Z,12.81
2023-03-17T23:21:35.823Z,12.85
2023-03-17T23:24:03.920Z,12.86
2023-03-17T23:26:32.110Z,12.88
2023-03-17T23:28:59.074Z,12.87
2023-03-17T23:31:26.199Z,12.86
2023-03-17T23:33:53.689Z,12.84
2023-03-17T23:36:21.344Z,12.81
2023-03-17T23:38:48.759Z,12.80
2023-03-17T23:41:17.453Z,12.78
2023-03-17T23:43:46.552Z,12.76
2023-03-17T23:46:14.696Z,12.73
2023-03-17T23:48:42.880Z,12.73
2023-03-17T23:51:12.423Z,12.71
2023-03-17T23:53:40.167Z,12.66
2023-03-17T23:56:08.226Z,12.63
2023-03-17T23:58:36.155Z,12.55
